Time;durP1;ratioP1;P1;durP2;ratioP2;P2;SDS_P1;SDS_P2;PMS_P1;PMS_P2;Temp;Humidity;BMP_temperature;BMP_pressure;BME280_temperature;BME280_humidity;BME280_pressure;Samples;Min_cycle;Max_cycle;Signal;HPM_P1;HPM_P2
2022/05/24 00:00:27;;;;;;;1.40;1.30;;;19.30;99.90;;;;;;5010495;28;20187;-59
2022/05/24 00:02:53;;;;;;;2.60;1.10;;;19.30;99.90;;;;;;5011621;28;20241;-58
2022/05/24 00:05:20;;;;;;;1.20;1.10;;;19.20;99.90;;;;;;5012041;28;20687;-59
2022/05/24 00:07:46;;;;;;;1.45;1.10;;;19.10;99.90;;;;;;5011444;28;20218;-59
2022/05/24 00:10:18;;;;;;;1.20;1.10;;;19.10;99.90;;;;;;5011120;28;20194;-58
2022/05/24 00:12:43;;;;;;;1.52;0.98;;;19.00;99.90;;;;;;5012066;28;20222;-58
2022/05/24 00:15:27;;;;;;;1.13;1.03;;;18.90;99.90;;;;;;5009362;28;20219;-59
2022/05/24 00:18:11;;;;;;;1.10;0.90;;;18.90;99.90;;;;;;5010369;28;20679;-58
2022/05/24 00:20:50;;;;;;;1.35;0.90;;;18.80;99.90;;;;;;5010384;28;20754;-59
2022/05/24 00:23:17;;;;;;;3.50;1.05;;;18.80;99.90;;;;;;5011050;28;20257;-58
2022/05/24 00:25:45;;;;;;;1.25;1.00;;;18.70;99.90;;;;;;5011235;28;20261;-58
2022/05/24 00:28:13;;;;;;;1.00;0.88;;;18.60;99.90;;;;;;5012902;28;20206;-59
2022/05/24 00:30:40;;;;;;;1.30;1.20;;;18.40;99.90;;;;;;5011207;28;20656;-59
2022/05/24 00:33:06;;;;;;;0.90;0.80;;;18.30;99.90;;;;;;5010371;28;20182;-59
2022/05/24 00:35:32;;;;;;;1.40;1.07;;;18.30;99.90;;;;;;5011148;28;20213;-59
2022/05/24 00:37:58;;;;;;;2.67;1.00;;;18.20;99.90;;;;;;5010448;28;21045;-59
2022/05/24 00:40:44;;;;;;;1.03;0.97;;;18.70;99.90;;;;;;5010513;28;20202;-60
2022/05/24 00:43:28;;;;;;;1.63;1.02;;;18.30;99.90;;;;;;5009579;28;20194;-59
2022/05/24 00:46:08;;;;;;;1.45;1.15;;;18.30;99.90;;;;;;5010333;28;20208;-59
2022/05/24 00:48:38;;;;;;;1.00;0.90;;;18.40;99.90;;;;;;5011404;28;20206;-59
2022/05/24 00:51:06;;;;;;;1.75;1.02;;;18.30;99.90;;;;;;5011057;28;20538;-59
2022/05/24 00:53:48;;;;;;;1.55;0.95;;;18.20;99.90;;;;;;5010693;28;20218;-59
2022/05/24 00:56:19;;;;;;;1.30;1.20;;;18.30;99.90;;;;;;5009706;28;20280;-59
2022/05/24 00:58:49;;;;;;;1.80;1.10;;;18.10;99.90;;;;;;5009605;28;20621;-59
2022/05/24 01:01:33;;;;;;;1.40;1.08;;;18.00;99.90;;;;;;5009666;28;20182;-59
2022/05/24 01:03:59;;;;;;;2.47;1.50;;;17.90;99.90;;;;;;5004860;28;20255;-59
2022/05/24 01:06:25;;;;;;;1.45;0.95;;;18.10;99.90;;;;;;5009550;28;20195;-59
2022/05/24 01:08:53;;;;;;;0.90;0.90;;;17.80;99.90;;;;;;5008755;28;20672;-59
2022/05/24 01:11:21;;;;;;;1.27;1.00;;;17.80;99.90;;;;;;5009987;28;20187;-59
2022/05/24 01:13:47;;;;;;;3.15;1.80;;;17.80;99.90;;;;;;5002577;28;20175;-59
2022/05/24 01:16:13;;;;;;;0.80;0.80;;;17.80;99.90;;;;;;5007088;28;20194;-59
2022/05/24 01:18:39;;;;;;;1.00;0.90;;;17.80;99.90;;;;;;5012088;28;20206;-60
2022/05/24 01:21:11;;;;;;;1.10;1.00;;;18.10;99.90;;;;;;5009985;28;20738;-59
2022/05/24 01:23:52;;;;;;;1.67;1.30;;;18.00;99.90;;;;;;5009578;28;20560;-59
2022/05/24 01:26:49;;;;;;;1.02;0.90;;;17.90;99.90;;;;;;5008826;28;20588;-60
2022/05/24 01:29:16;;;;;;;1.00;0.90;;;17.80;99.90;;;;;;5005258;28;20199;-59
2022/05/24 01:37:12;;;;;;;1.45;0.82;;;17.90;99.90;;;;;;5009433;28;20560;-59
2022/05/24 01:39:40;;;;;;;0.90;0.90;;;17.90;99.90;;;;;;4997895;28;20206;-59
2022/05/24 01:42:07;;;;;;;0.90;0.90;;;17.90;99.90;;;;;;5008925;28;20243;-59
2022/05/24 01:44:46;;;;;;;1.63;1.10;;;18.00;99.90;;;;;;5005578;28;20211;-59
2022/05/24 01:47:13;;;;;;;0.88;0.88;;;17.90;99.90;;;;;;5006983;28;20186;-59
2022/05/24 01:49:45;;;;;;;1.20;1.00;;;17.80;99.90;;;;;;5005294;28;20738;-59
2022/05/24 01:52:19;;;;;;;1.45;1.00;;;17.80;99.90;;;;;;5002964;28;20207;-59
2022/05/24 01:55:11;;;;;;;1.08;0.98;;;17.80;99.90;;;;;;5008336;28;20202;-59
2022/05/24 01:57:43;;;;;;;1.48;1.30;;;17.60;99.90;;;;;;5010577;28;20292;-59
2022/05/24 02:00:12;;;;;;;1.13;0.93;;;17.50;99.90;;;;;;5012163;28;20183;-59
2022/05/24 02:02:38;;;;;;;1.25;1.15;;;17.50;99.90;;;;;;5012527;28;20230;-59
2022/05/24 02:05:05;;;;;;;1.57;1.00;;;17.50;99.90;;;;;;5012941;28;20236;-59
2022/05/24 02:07:32;;;;;;;1.20;1.10;;;17.60;99.90;;;;;;5012795;28;20182;-59
2022/05/24 02:09:58;;;;;;;1.20;1.10;;;17.60;99.90;;;;;;5012771;28;20197;-59
2022/05/24 02:12:29;;;;;;;3.15;1.10;;;17.50;99.90;;;;;;5013130;28;20191;-59
2022/05/24 02:15:00;;;;;;;1.40;1.30;;;17.60;99.90;;;;;;5011419;28;20542;-59
2022/05/24 02:17:56;;;;;;;2.80;1.38;;;17.50;99.90;;;;;;5013050;28;20198;-58
2022/05/24 02:20:30;;;;;;;1.20;1.10;;;17.40;99.90;;;;;;5012588;28;20183;-59
2022/05/24 02:22:56;;;;;;;1.67;1.25;;;17.50;99.90;;;;;;5011904;28;20959;-58
2022/05/24 02:25:34;;;;;;;1.15;1.10;;;17.40;99.90;;;;;;5012961;28;20742;-60
2022/05/24 02:28:00;;;;;;;1.15;1.05;;;17.50;99.90;;;;;;5011226;28;20210;-58
2022/05/24 02:30:28;;;;;;;1.00;0.90;;;17.40;99.90;;;;;;5011141;28;20191;-59
2022/05/24 02:32:54;;;;;;;1.42;1.33;;;17.20;99.90;;;;;;5012263;28;20179;-58
2022/05/24 02:35:20;;;;;;;1.23;1.13;;;17.10;99.90;;;;;;5010861;28;20269;-59
2022/05/24 02:37:46;;;;;;;1.30;1.20;;;17.20;99.90;;;;;;5011735;28;20297;-58
2022/05/24 02:42:57;;;;;;;1.40;1.20;;;17.00;99.90;;;;;;5012543;28;20464;-58
2022/05/24 02:45:23;;;;;;;1.33;1.23;;;17.10;99.90;;;;;;5011029;28;20684;-59
2022/05/24 02:47:49;;;;;;;1.45;1.35;;;17.00;99.90;;;;;;5013157;28;20457;-58
2022/05/24 02:50:16;;;;;;;1.40;1.30;;;16.90;99.90;;;;;;5012858;28;20701;-58
2022/05/24 02:52:42;;;;;;;1.35;1.25;;;16.80;99.90;;;;;;5010594;28;20441;-58
2022/05/24 02:55:12;;;;;;;1.05;1.05;;;17.00;99.90;;;;;;5011141;28;20274;-60
2022/05/24 02:57:38;;;;;;;1.10;1.00;;;17.20;99.90;;;;;;5011725;28;20210;-59
2022/05/24 03:00:16;;;;;;;1.30;1.20;;;17.00;99.90;;;;;;5011576;28;20191;-58
2022/05/24 03:02:42;;;;;;;1.40;1.10;;;17.00;99.90;;;;;;5012101;28;20614;-59
2022/05/24 03:05:10;;;;;;;1.30;1.20;;;16.90;99.90;;;;;;5010667;28;20294;-58
2022/05/24 03:10:30;;;;;;;2.20;1.40;;;16.80;99.90;;;;;;5026378;28;20191;-59
2022/05/24 03:15:42;;;;;;;2.25;1.48;;;16.70;99.90;;;;;;5011777;28;20686;-58
2022/05/24 03:18:11;;;;;;;1.38;1.27;;;16.90;99.90;;;;;;5010007;28;20215;-57
2022/05/24 03:20:41;;;;;;;2.00;1.63;;;16.80;99.90;;;;;;5009514;28;20201;-57
2022/05/24 03:23:07;;;;;;;1.40;1.30;;;16.80;99.90;;;;;;5011213;28;20648;-58
2022/05/24 03:25:33;;;;;;;1.52;1.42;;;16.80;99.90;;;;;;5005618;28;20222;-58
2022/05/24 03:27:59;;;;;;;2.28;1.35;;;17.00;99.90;;;;;;5012007;28;20293;-58
2022/05/24 03:30:26;;;;;;;1.90;1.30;;;17.00;99.90;;;;;;5010518;28;20183;-59
2022/05/24 03:32:52;;;;;;;1.20;1.10;;;16.60;99.90;;;;;;5011791;28;20196;-59
2022/05/24 03:35:18;;;;;;;1.80;1.57;;;16.80;99.90;;;;;;5011874;28;20186;-58
2022/05/24 03:37:44;;;;;;;1.52;1.40;;;16.80;99.90;;;;;;5009702;28;20465;-58
2022/05/24 03:40:11;;;;;;;2.03;1.43;;;16.60;99.90;;;;;;5005165;28;20221;-59
2022/05/24 03:42:37;;;;;;;4.25;1.77;;;16.80;99.90;;;;;;5011508;28;20195;-59
2022/05/24 03:45:05;;;;;;;1.70;1.60;;;16.80;99.90;;;;;;5010240;28;20202;-59
2022/05/24 03:47:31;;;;;;;1.50;1.40;;;16.70;99.90;;;;;;5011817;28;20194;-58
2022/05/24 03:49:57;;;;;;;1.80;1.70;;;16.60;99.90;;;;;;5011750;28;20674;-58
2022/05/24 03:52:22;;;;;;;1.47;1.37;;;16.80;99.90;;;;;;5011860;28;20198;-59
2022/05/24 03:54:48;;;;;;;1.60;1.43;;;16.80;99.90;;;;;;5011017;28;20581;-60
2022/05/24 03:59:58;;;;;;;1.65;1.55;;;16.90;99.90;;;;;;5008474;28;20277;-60
2022/05/24 04:02:24;;;;;;;2.20;1.50;;;16.80;99.90;;;;;;5010302;28;20814;-61
2022/05/24 04:04:50;;;;;;;1.67;1.50;;;16.80;99.90;;;;;;5012190;28;20517;-62
2022/05/24 04:07:15;;;;;;;1.90;1.50;;;16.40;99.90;;;;;;5009325;28;20265;-63
2022/05/24 04:09:41;;;;;;;1.87;1.20;;;17.10;99.90;;;;;;5010272;28;20183;-62
2022/05/24 04:12:08;;;;;;;1.83;1.73;;;16.90;99.90;;;;;;5009447;28;20183;-62
2022/05/24 04:14:34;;;;;;;1.58;1.17;;;16.80;99.90;;;;;;5010828;28;20209;-61
2022/05/24 04:17:00;;;;;;;2.55;1.40;;;16.90;99.90;;;;;;5006772;28;20196;-62
2022/05/24 04:19:26;;;;;;;1.60;1.50;;;16.80;99.90;;;;;;4999950;28;20218;-61
2022/05/24 04:21:52;;;;;;;2.90;1.40;;;16.90;99.90;;;;;;5010886;28;20822;-63
2022/05/24 04:24:17;;;;;;;2.07;1.50;;;17.10;99.90;;;;;;5008909;28;20218;-62
2022/05/24 04:26:43;;;;;;;2.60;1.80;;;17.00;99.90;;;;;;5009920;28;20520;-62
2022/05/24 04:29:09;;;;;;;1.50;1.40;;;17.10;99.90;;;;;;5010529;28;20213;-62
2022/05/24 04:31:35;;;;;;;3.23;1.63;;;17.10;99.90;;;;;;5008385;28;20179;-63
2022/05/24 04:34:00;;;;;;;1.83;1.73;;;17.00;99.90;;;;;;5010477;28;20640;-63
2022/05/24 04:36:26;;;;;;;4.80;1.60;;;17.10;99.90;;;;;;5010595;28;20198;-62
2022/05/24 04:38:52;;;;;;;1.43;1.33;;;17.10;99.90;;;;;;5010425;28;20218;-62
2022/05/24 04:44:02;;;;;;;1.95;1.10;;;17.30;99.90;;;;;;5006684;28;20240;-62
2022/05/24 04:47:06;;;;;;;1.23;1.13;;;17.40;99.90;;;;;;5010615;28;20667;-63
2022/05/24 04:49:13;;;;;;;1.30;1.20;;;17.40;99.90;;;;;;5007977;28;20536;-63
2022/05/24 04:51:38;;;;;;;1.53;1.27;;;17.50;99.90;;;;;;5010071;28;20804;-62
2022/05/24 04:54:04;;;;;;;2.03;1.47;;;17.50;99.90;;;;;;5008916;28;20249;-62
2022/05/24 04:56:30;;;;;;;1.63;1.23;;;17.60;99.90;;;;;;5008193;28;20547;-62
2022/05/24 04:58:55;;;;;;;1.37;1.27;;;17.70;99.90;;;;;;5009270;28;20222;-62
2022/05/24 05:01:21;;;;;;;5.20;1.50;;;17.70;99.90;;;;;;5010165;28;20676;-63
2022/05/24 05:03:46;;;;;;;1.40;1.30;;;17.70;99.90;;;;;;5006774;28;20190;-62
2022/05/24 05:06:13;;;;;;;2.37;2.17;;;17.70;99.90;;;;;;5009248;28;20225;-62
2022/05/24 05:08:39;;;;;;;2.55;1.60;;;17.60;99.90;;;;;;5008874;28;20207;-62
2022/05/24 05:11:04;;;;;;;4.30;1.77;;;17.60;99.90;;;;;;5009176;28;20194;-62
2022/05/24 05:13:30;;;;;;;1.90;1.80;;;17.60;99.90;;;;;;5009059;28;20186;-62
2022/05/24 05:15:56;;;;;;;1.77;1.67;;;17.60;99.90;;;;;;5008205;28;20656;-62
2022/05/24 05:18:24;;;;;;;1.60;1.30;;;17.90;99.90;;;;;;5009472;28;20287;-62
2022/05/24 05:20:50;;;;;;;1.67;1.58;;;18.00;99.90;;;;;;5009534;28;20183;-62
2022/05/24 05:23:16;;;;;;;2.33;1.50;;;18.10;99.90;;;;;;5010046;28;20611;-62
2022/05/24 05:25:47;;;;;;;2.85;1.48;;;18.00;99.90;;;;;;5008800;28;20207;-62
2022/05/24 05:28:13;;;;;;;2.08;1.40;;;18.00;99.90;;;;;;5008885;28;20199;-62
2022/05/24 05:33:23;;;;;;;2.15;1.60;;;17.90;99.90;;;;;;5004230;28;20703;-62
2022/05/24 05:35:50;;;;;;;2.80;1.77;;;18.00;99.90;;;;;;5009124;28;20294;-61
2022/05/24 05:38:16;;;;;;;6.25;5.38;;;18.20;99.90;;;;;;5009103;28;20210;-61
2022/05/24 05:40:42;;;;;;;1.80;1.70;;;18.20;99.90;;;;;;5008412;28;20190;-57
2022/05/24 05:43:08;;;;;;;2.37;1.90;;;18.40;99.90;;;;;;5009457;28;20280;-57
2022/05/24 05:45:34;;;;;;;2.10;1.98;;;18.50;99.90;;;;;;5007114;28;20470;-58
2022/05/24 05:48:00;;;;;;;3.60;1.98;;;18.60;99.90;;;;;;5009590;28;20209;-58
2022/05/24 05:50:25;;;;;;;1.50;1.40;;;18.60;99.90;;;;;;5008939;28;20213;-58
2022/05/24 05:52:51;;;;;;;1.90;1.80;;;18.70;99.90;;;;;;5009629;28;20534;-59
2022/05/24 05:55:19;;;;;;;1.70;1.50;;;18.70;99.90;;;;;;5007191;28;20197;-59
2022/05/24 05:57:45;;;;;;;1.70;1.60;;;19.00;99.90;;;;;;5007763;28;20293;-56
2022/05/24 06:00:12;;;;;;;1.85;1.63;;;19.20;99.90;;;;;;5008541;28;20213;-63
2022/05/24 06:02:38;;;;;;;3.60;2.70;;;19.40;99.90;;;;;;5008553;28;20191;-66
2022/05/24 06:05:05;;;;;;;2.08;1.92;;;19.70;99.90;;;;;;5006400;28;20214;-65
2022/05/24 06:07:31;;;;;;;1.80;1.70;;;19.80;99.90;;;;;;5007891;28;20183;-63
2022/05/24 06:09:58;;;;;;;1.90;1.80;;;19.90;99.90;;;;;;5001901;28;20183;-62
2022/05/24 06:12:24;;;;;;;2.55;1.60;;;20.00;99.90;;;;;;5009037;28;20256;-67
2022/05/24 06:14:50;;;;;;;3.88;2.30;;;20.10;99.90;;;;;;5006993;28;20198;-63
2022/05/24 06:17:16;;;;;;;2.90;1.47;;;20.20;99.90;;;;;;5010054;28;20191;-64
2022/05/24 06:19:43;;;;;;;1.80;1.40;;;20.10;99.60;;;;;;5004343;28;20171;-62
2022/05/24 06:22:09;;;;;;;2.03;1.92;;;20.40;99.30;;;;;;5003925;28;20184;-63
2022/05/24 06:24:35;;;;;;;1.50;1.40;;;20.30;99.40;;;;;;5004906;28;20222;-66
2022/05/24 06:27:02;;;;;;;2.00;1.40;;;20.40;99.50;;;;;;5000564;28;20801;-67
2022/05/24 06:29:30;;;;;;;2.47;1.73;;;20.60;98.90;;;;;;5008481;28;20461;-65
2022/05/24 06:31:56;;;;;;;2.25;1.67;;;20.60;98.60;;;;;;5005305;28;20202;-65
2022/05/24 06:34:21;;;;;;;2.17;1.37;;;20.60;97.90;;;;;;5006094;28;20564;-61
2022/05/24 06:36:47;;;;;;;1.63;1.53;;;20.70;98.00;;;;;;5006717;28;20194;-58
2022/05/24 06:39:13;;;;;;;3.40;1.53;;;20.70;97.90;;;;;;5006613;28;20321;-60
2022/05/24 06:41:38;;;;;;;1.50;1.30;;;20.60;97.60;;;;;;5008484;28;20445;-58
2022/05/24 06:44:05;;;;;;;2.27;2.07;;;20.40;97.80;;;;;;5011691;28;20669;-57
2022/05/24 06:46:31;;;;;;;4.18;1.65;;;20.40;98.00;;;;;;5010314;28;20365;-57
2022/05/24 06:48:57;;;;;;;1.60;1.50;;;20.40;98.40;;;;;;5008190;28;20575;-57
2022/05/24 06:51:23;;;;;;;1.40;1.30;;;20.40;97.60;;;;;;5012389;28;20182;-59
2022/05/24 06:53:49;;;;;;;2.28;1.65;;;20.50;98.00;;;;;;5011952;28;20442;-60
2022/05/24 06:56:16;;;;;;;5.65;1.70;;;20.60;97.80;;;;;;5011563;28;20570;-61
2022/05/24 06:58:42;;;;;;;1.55;1.33;;;20.60;97.70;;;;;;5010599;28;20294;-62
2022/05/24 07:03:56;;;;;;;2.55;1.58;;;20.50;98.00;;;;;;5003754;28;20253;-67
2022/05/24 07:06:22;;;;;;;2.45;1.85;;;20.30;97.80;;;;;;5011538;28;20183;-71
2022/05/24 07:08:49;;;;;;;2.93;1.80;;;20.30;98.00;;;;;;5010379;28;20303;-65
2022/05/24 07:11:18;;;;;;;2.00;0.88;;;20.30;98.00;;;;;;5008836;28;20880;-65
2022/05/24 07:13:43;;;;;;;5.68;1.98;;;20.00;94.10;;;;;;5014353;28;20549;-63
2022/05/24 07:16:10;;;;;;;3.20;1.17;;;19.10;98.50;;;;;;5012464;28;20218;-60
2022/05/24 07:18:37;;;;;;;1.90;0.80;;;18.30;99.90;;;;;;5008331;28;20207;-60
2022/05/24 07:21:04;;;;;;;2.95;1.45;;;17.50;99.90;;;;;;5007124;28;20183;-60
2022/05/24 07:23:32;;;;;;;1.80;1.08;;;16.90;99.90;;;;;;5010784;28;20210;-60
2022/05/24 07:26:09;;;;;;;7.07;1.65;;;16.50;99.90;;;;;;5009735;28;20246;-59
2022/05/24 07:28:36;;;;;;;2.67;1.00;;;16.50;99.90;;;;;;5009309;28;20218;-58
2022/05/24 07:31:02;;;;;;;1.58;1.05;;;16.00;99.90;;;;;;5009953;28;20202;-59
2022/05/24 07:33:28;;;;;;;2.22;0.90;;;16.00;99.90;;;;;;5011385;28;20262;-59
2022/05/24 07:35:54;;;;;;;5.23;1.77;;;15.80;99.90;;;;;;5008257;28;20262;-57
2022/05/24 07:38:20;;;;;;;3.30;1.13;;;15.60;99.90;;;;;;5007406;28;20218;-57
2022/05/24 07:46:15;;;;;;;3.03;0.90;;;16.00;99.90;;;;;;5010888;28;20233;-58
2022/05/24 07:48:41;;;;;;;1.00;0.85;;;16.10;99.90;;;;;;5010688;28;20234;-65
2022/05/24 07:51:07;;;;;;;2.25;0.90;;;16.20;99.90;;;;;;5009897;28;20218;-67
2022/05/24 07:53:33;;;;;;;5.38;1.55;;;16.20;99.90;;;;;;5009933;28;20193;-68
2022/05/24 07:55:59;;;;;;;1.75;1.00;;;16.20;99.90;;;;;;5008804;28;20194;-68
2022/05/24 07:58:26;;;;;;;1.30;1.10;;;16.20;99.90;;;;;;5010567;28;20213;-68
2022/05/24 08:00:55;;;;;;;1.40;0.90;;;16.30;99.90;;;;;;5008742;28;20194;-66
2022/05/24 08:03:20;;;;;;;2.08;1.20;;;16.60;99.90;;;;;;5011020;28;20190;-68
2022/05/24 08:05:47;;;;;;;2.17;1.00;;;16.80;99.90;;;;;;5002984;28;20714;-66
2022/05/24 08:08:14;;;;;;;1.00;0.83;;;17.40;99.90;;;;;;5009839;28;20203;-67
2022/05/24 08:10:41;;;;;;;2.28;0.90;;;17.60;99.90;;;;;;5010789;28;20185;-65
2022/05/24 08:13:09;;;;;;;2.17;1.00;;;18.10;99.90;;;;;;5009206;28;20205;-65
2022/05/24 08:15:36;;;;;;;1.13;0.60;;;18.00;99.90;;;;;;5005863;28;20211;-61
2022/05/24 08:18:02;;;;;;;1.70;1.50;;;18.30;99.90;;;;;;5006087;28;20227;-62
2022/05/24 08:20:31;;;;;;;1.48;0.82;;;18.30;99.90;;;;;;5007335;28;20571;-65
2022/05/24 08:22:58;;;;;;;3.78;0.93;;;18.10;99.90;;;;;;5007364;28;20187;-66
2022/05/24 08:25:25;;;;;;;1.60;1.15;;;18.30;99.90;;;;;;5008704;28;20227;-66
2022/05/24 08:27:51;;;;;;;2.85;0.93;;;18.20;99.90;;;;;;5008755;28;20257;-67
2022/05/24 08:30:18;;;;;;;2.20;0.90;;;18.10;99.90;;;;;;5009536;28;20183;-62
2022/05/24 08:32:44;;;;;;;1.50;1.00;;;18.00;99.90;;;;;;5007543;28;20197;-56
2022/05/24 08:35:13;;;;;;;2.13;0.80;;;18.10;99.90;;;;;;5009054;28;20218;-63
2022/05/24 08:37:40;;;;;;;1.20;0.80;;;18.10;99.90;;;;;;5007514;28;20301;-62
2022/05/24 08:40:07;;;;;;;1.23;0.80;;;18.30;99.90;;;;;;5024520;28;20264;-64
2022/05/24 08:42:32;;;;;;;1.98;0.70;;;18.20;99.90;;;;;;5007573;28;20189;-64
2022/05/24 08:48:28;;;;;;;1.20;0.88;;;18.40;99.90;;;;;;5009117;28;20260;-64
2022/05/24 08:51:10;;;;;;;2.67;0.98;;;18.30;99.90;;;;;;5008548;28;20812;-66
2022/05/24 08:53:41;;;;;;;1.70;1.00;;;18.50;99.90;;;;;;5004745;28;20191;-58
2022/05/24 08:56:12;;;;;;;1.08;0.80;;;18.80;99.90;;;;;;5002223;28;20197;-57
2022/05/24 08:58:42;;;;;;;1.67;0.75;;;19.00;99.90;;;;;;5006824;28;20703;-67
2022/05/24 09:01:32;;;;;;;1.20;0.80;;;19.00;99.90;;;;;;5009350;28;20277;-65
2022/05/24 09:03:59;;;;;;;1.35;1.00;;;19.20;98.50;;;;;;5008324;28;20606;-65
2022/05/24 09:06:50;;;;;;;2.13;0.80;;;19.30;96.70;;;;;;5009311;28;20186;-65
2022/05/24 09:09:36;;;;;;;2.92;1.48;;;19.60;96.60;;;;;;5002114;28;20230;-65
2022/05/24 09:12:21;;;;;;;9.32;3.67;;;19.90;96.00;;;;;;5006746;28;20656;-64
2022/05/24 09:15:02;;;;;;;2.22;1.08;;;19.90;95.40;;;;;;5007029;28;20226;-63
2022/05/24 09:17:59;;;;;;;2.30;0.90;;;20.00;94.30;;;;;;5009487;28;20191;-60
2022/05/24 09:20:25;;;;;;;1.85;0.82;;;20.20;93.90;;;;;;5002301;28;20182;-63
2022/05/24 09:22:53;;;;;;;1.67;0.80;;;20.70;93.10;;;;;;5009755;28;20194;-63
2022/05/24 09:25:19;;;;;;;1.00;0.90;;;21.10;92.00;;;;;;5006697;28;20219;-59
2022/05/24 09:27:53;;;;;;;1.00;0.80;;;21.60;91.10;;;;;;5006545;28;20206;-59
2022/05/24 09:30:24;;;;;;;2.45;0.85;;;21.90;89.50;;;;;;5000236;28;20182;-59
2022/05/24 09:32:50;;;;;;;0.80;0.60;;;22.10;88.70;;;;;;5009499;28;20541;-59
2022/05/24 09:35:15;;;;;;;0.87;0.80;;;22.10;86.80;;;;;;5009004;28;20206;-59
2022/05/24 09:37:42;;;;;;;1.23;0.60;;;21.80;84.20;;;;;;5000313;28;20205;-58
2022/05/24 09:40:21;;;;;;;1.63;1.53;;;22.20;82.20;;;;;;5008679;28;20189;-63
2022/05/24 09:42:47;;;;;;;1.93;0.97;;;23.10;80.40;;;;;;5018796;28;20524;-56
2022/05/24 09:45:16;;;;;;;1.57;0.70;;;24.40;77.20;;;;;;5005333;28;20570;-56
2022/05/24 09:47:45;;;;;;;1.13;1.00;;;24.60;73.70;;;;;;5008936;28;20555;-56
2022/05/24 09:50:22;;;;;;;0.90;0.60;;;24.90;74.70;;;;;;5009515;28;20837;-55
2022/05/24 09:53:03;;;;;;;1.53;1.43;;;24.50;71.80;;;;;;5009578;28;20441;-58
2022/05/24 09:55:55;;;;;;;0.97;0.80;;;24.10;74.10;;;;;;5004010;28;21033;-54
2022/05/24 09:58:21;;;;;;;1.23;1.03;;;23.40;76.70;;;;;;5007536;28;20480;-65
2022/05/24 10:00:56;;;;;;;1.90;1.40;;;22.50;77.00;;;;;;5006946;28;20445;-64
2022/05/24 10:03:35;;;;;;;1.00;0.90;;;22.00;78.90;;;;;;5008213;28;20946;-64
2022/05/24 10:06:03;;;;;;;1.77;0.80;;;22.00;78.20;;;;;;4999685;28;20472;-62
2022/05/24 10:08:37;;;;;;;1.20;0.70;;;22.80;76.40;;;;;;5005760;28;23234;-66
2022/05/24 10:11:04;;;;;;;1.77;1.40;;;23.50;72.90;;;;;;5007417;28;20446;-64
2022/05/24 10:13:45;;;;;;;1.93;1.00;;;25.80;68.70;;;;;;5008992;28;20436;-63
2022/05/24 10:16:24;;;;;;;0.93;0.73;;;26.60;64.70;;;;;;5008543;28;20520;-60
2022/05/24 10:19:01;;;;;;;2.20;0.90;;;27.30;60.10;;;;;;5011450;28;20535;-60
2022/05/24 10:21:45;;;;;;;1.17;0.73;;;26.90;58.80;;;;;;5010617;28;20468;-59
2022/05/24 10:24:23;;;;;;;1.00;0.70;;;26.60;59.30;;;;;;5012208;28;20501;-59
2022/05/24 10:27:01;;;;;;;2.17;0.80;;;26.20;58.10;;;;;;5009944;28;20456;-60
2022/05/24 10:30:00;;;;;;;1.17;0.83;;;25.20;58.70;;;;;;5008716;28;20828;-60
2022/05/24 10:39:13;;;;;;;1.40;1.30;;;23.20;63.80;;;;;;5010587;28;20467;-59
2022/05/24 10:41:54;;;;;;;1.87;1.03;;;23.50;63.60;;;;;;5010169;28;21022;-58
2022/05/24 10:44:53;;;;;;;2.50;0.90;;;24.70;63.40;;;;;;5010859;28;20462;-58
2022/05/24 10:47:40;;;;;;;1.40;0.93;;;25.00;59.80;;;;;;5009436;28;20865;-59
2022/05/24 10:50:14;;;;;;;2.23;1.33;;;24.40;60.80;;;;;;5005783;28;20857;-59
2022/05/24 10:53:11;;;;;;;1.00;0.90;;;25.00;62.40;;;;;;5011001;28;20547;-59
2022/05/24 10:55:51;;;;;;;0.80;0.70;;;25.80;59.10;;;;;;5010206;28;20464;-59
2022/05/24 10:58:17;;;;;;;1.50;1.00;;;26.90;56.50;;;;;;5008773;28;20527;-59
2022/05/24 11:01:03;;;;;;;0.93;0.80;;;26.20;57.70;;;;;;5008702;28;20443;-59
2022/05/24 11:03:41;;;;;;;0.80;0.73;;;25.00;58.50;;;;;;5009000;28;20848;-59
2022/05/24 11:06:16;;;;;;;2.93;2.47;;;24.40;60.20;;;;;;5009431;28;21043;-59
2022/05/24 11:09:06;;;;;;;1.63;0.80;;;24.20;61.90;;;;;;5005773;28;20461;-59
2022/05/24 11:11:41;;;;;;;1.00;0.70;;;23.80;62.40;;;;;;5010700;28;20560;-59
2022/05/24 11:14:23;;;;;;;1.30;0.90;;;25.00;61.10;;;;;;5011490;28;20478;-59
2022/05/24 11:16:51;;;;;;;1.20;0.90;;;26.00;58.10;;;;;;5009894;28;20454;-59
2022/05/24 11:19:22;;;;;;;2.50;1.70;;;26.20;56.90;;;;;;5010365;28;20500;-59
2022/05/24 11:22:05;;;;;;;1.87;1.20;;;25.90;57.20;;;;;;5010631;28;20475;-60
2022/05/24 11:24:51;;;;;;;2.30;1.17;;;24.60;58.10;;;;;;5007005;28;20472;-59
2022/05/24 11:27:33;;;;;;;2.70;0.90;;;24.60;58.40;;;;;;5010156;28;20461;-59
2022/05/24 11:30:11;;;;;;;2.07;1.07;;;24.20;59.10;;;;;;5009914;28;20671;-61
2022/05/24 11:32:49;;;;;;;1.40;1.10;;;24.10;59.60;;;;;;5008323;28;20449;-63
2022/05/24 11:35:18;;;;;;;1.50;1.20;;;25.40;59.00;;;;;;5008502;28;20438;-60
2022/05/24 11:37:47;;;;;;;1.07;0.97;;;25.80;58.50;;;;;;5004877;28;20457;-63
2022/05/24 11:40:32;;;;;;;1.67;1.10;;;25.90;58.00;;;;;;5008936;28;20860;-64
2022/05/24 11:43:03;;;;;;;2.27;1.20;;;25.30;58.60;;;;;;5006575;28;20456;-57
2022/05/24 11:45:29;;;;;;;1.00;0.90;;;24.80;58.90;;;;;;4999805;28;20470;-57
2022/05/24 11:47:57;;;;;;;1.10;0.83;;;23.90;60.00;;;;;;5005099;28;20833;-64
2022/05/24 11:50:32;;;;;;;1.60;1.07;;;23.30;63.20;;;;;;5009790;28;20193;-61
2022/05/24 11:53:29;;;;;;;0.90;0.90;;;23.00;64.20;;;;;;4996533;28;20465;-61
2022/05/24 11:55:55;;;;;;;1.80;1.00;;;22.50;65.20;;;;;;5001923;28;20456;-62
2022/05/24 11:58:23;;;;;;;1.30;1.07;;;22.10;66.80;;;;;;5007706;28;20233;-64
2022/05/24 12:01:17;;;;;;;1.00;0.90;;;22.10;68.60;;;;;;5008099;28;20277;-62
2022/05/24 12:10:10;;;;;;;1.73;1.10;;;22.00;69.10;;;;;;5006893;28;20496;-64
2022/05/24 12:12:46;;;;;;;1.00;0.90;;;21.90;69.90;;;;;;5012475;28;20180;-63
2022/05/24 12:15:14;;;;;;;3.13;0.90;;;22.00;69.80;;;;;;5009763;28;20190;-64
2022/05/24 12:17:40;;;;;;;2.13;0.93;;;21.80;67.30;;;;;;5009164;28;20562;-66
2022/05/24 12:20:49;;;;;;;1.20;1.10;;;21.70;71.30;;;;;;5008646;28;20269;-66
2022/05/24 12:23:30;;;;;;;1.20;1.10;;;21.90;69.10;;;;;;5008079;28;20622;-68
2022/05/24 12:26:12;;;;;;;2.65;1.70;;;21.90;69.30;;;;;;5010156;28;20698;-66
2022/05/24 12:28:38;;;;;;;1.60;1.50;;;21.90;68.90;;;;;;5004076;28;20235;-65
2022/05/24 12:31:21;;;;;;;2.57;1.20;;;22.00;69.50;;;;;;5005443;28;20222;-66
2022/05/24 12:33:53;;;;;;;1.00;0.90;;;22.10;68.30;;;;;;5008000;28;20190;-67
2022/05/24 12:36:25;;;;;;;1.40;1.10;;;22.10;68.80;;;;;;5024055;28;20809;-58
2022/05/24 12:39:11;;;;;;;1.13;0.90;;;22.10;70.00;;;;;;5002671;28;21133;-60
2022/05/24 12:41:45;;;;;;;2.60;1.00;;;22.30;69.60;;;;;;5009334;28;20199;-59
2022/05/24 12:44:21;;;;;;;1.60;1.47;;;22.20;67.50;;;;;;5006568;28;20447;-63
2022/05/24 12:46:59;;;;;;;1.20;0.80;;;21.80;68.00;;;;;;5008587;28;20782;-66
2022/05/24 12:49:28;;;;;;;0.80;0.80;;;21.90;67.00;;;;;;5005235;28;20213;-65
2022/05/24 12:52:03;;;;;;;2.78;0.85;;;21.90;64.70;;;;;;5007854;28;20183;-63
2022/05/24 12:54:35;;;;;;;1.33;0.80;;;22.00;64.30;;;;;;5004404;28;20192;-63
2022/05/24 12:57:05;;;;;;;2.55;1.10;;;22.10;63.70;;;;;;5004415;28;20202;-67
2022/05/24 12:59:40;;;;;;;1.38;1.00;;;21.90;64.40;;;;;;4999508;28;20210;-65
2022/05/24 13:02:30;;;;;;;1.95;0.90;;;21.90;66.00;;;;;;5025138;28;20186;-66
2022/05/24 13:05:19;;;;;;;1.50;1.00;;;22.00;65.50;;;;;;5008595;28;20206;-66
2022/05/24 13:07:45;;;;;;;0.70;0.70;;;21.90;65.20;;;;;;5009475;28;20978;-62
2022/05/24 13:10:23;;;;;;;2.08;1.10;;;21.70;64.40;;;;;;5008236;28;20267;-63
2022/05/24 13:12:52;;;;;;;1.13;0.95;;;21.50;65.30;;;;;;5010642;28;20187;-65
2022/05/24 13:15:28;;;;;;;2.50;1.00;;;21.60;66.50;;;;;;5007636;28;20193;-67
2022/05/24 13:17:58;;;;;;;1.40;1.10;;;21.70;66.70;;;;;;5009818;28;20252;-63
2022/05/24 13:20:25;;;;;;;1.38;0.90;;;21.80;65.60;;;;;;5021004;28;20672;-63
2022/05/24 13:22:55;;;;;;;2.03;1.25;;;21.60;67.40;;;;;;5009470;28;20203;-64
2022/05/24 13:25:26;;;;;;;1.95;0.98;;;21.20;68.50;;;;;;5008480;28;20248;-65
2022/05/24 13:27:54;;;;;;;3.13;1.90;;;21.20;70.40;;;;;;5009137;28;20217;-66
2022/05/24 13:33:38;;;;;;;3.05;1.50;;;21.30;71.20;;;;;;5008918;28;20725;-66
2022/05/24 13:36:12;;;;;;;1.10;1.00;;;21.50;70.90;;;;;;5008793;28;20599;-61
2022/05/24 13:38:40;;;;;;;2.10;1.00;;;21.40;70.60;;;;;;5009392;28;20210;-60
2022/05/24 13:41:07;;;;;;;1.27;1.00;;;21.60;70.00;;;;;;5003782;28;20288;-63
2022/05/24 13:43:39;;;;;;;1.50;1.33;;;21.50;69.40;;;;;;5009373;28;20296;-64
2022/05/24 13:46:25;;;;;;;1.13;0.93;;;21.50;69.80;;;;;;5004632;28;20228;-63
2022/05/24 13:48:54;;;;;;;2.25;1.80;;;21.60;68.60;;;;;;5008787;28;20222;-65
2022/05/24 13:51:34;;;;;;;1.20;1.10;;;21.60;68.50;;;;;;5025873;28;20191;-63
2022/05/24 13:54:01;;;;;;;2.97;1.67;;;21.70;68.70;;;;;;5006416;28;20257;-62
2022/05/24 13:56:31;;;;;;;2.75;1.25;;;22.00;67.70;;;;;;5008926;28;20206;-59